createdAt,value
2018-08-09T00:00:14.597Z,59.71
2018-08-09T00:01:26.413Z,59.21
2018-08-09T00:02:37.834Z,59.72
2018-08-09T00:03:52.851Z,60.14
2018-08-09T00:05:02.136Z,59.76
2018-08-09T00:06:08.192Z,59.90
2018-08-09T00:07:14.136Z,59.25
2018-08-09T00:08:20.105Z,59.14
2018-08-09T00:09:25.359Z,59.34
2018-08-09T00:10:30.748Z,59.70
2018-08-09T00:11:36.869Z,60.38
2018-08-09T00:12:42.813Z,60.29
2018-08-09T00:13:48.931Z,60.72
2018-08-09T00:14:55.561Z,60.34
2018-08-09T00:16:01.963Z,60.20
2018-08-09T00:17:08.016Z,60.26
2018-08-09T00:18:14.258Z,60.44
2018-08-09T00:19:19.731Z,60.47
2018-08-09T00:20:25.822Z,60.68
2018-08-09T00:21:32.272Z,60.49
2018-08-09T00:22:38.496Z,60.39
2018-08-09T00:23:44.861Z,60.82
2018-08-09T00:24:55.364Z,60.98
2018-08-09T00:26:01.807Z,61.09
2018-08-09T00:27:08.072Z,61.43
2018-08-09T00:28:14.372Z,61.50
2018-08-09T00:29:20.377Z,61.66
2018-08-09T00:30:26.028Z,61.88
2018-08-09T00:31:32.114Z,62.16
2018-08-09T00:32:38.412Z,62.39
2018-08-09T00:33:44.840Z,62.39
2018-08-09T00:34:51.004Z,62.70
2018-08-09T00:35:57.323Z,62.41
2018-08-09T00:37:03.858Z,62.14
2018-08-09T00:38:09.940Z,62.48
2018-08-09T00:39:16.260Z,62.39
2018-08-09T00:40:22.559Z,62.13
2018-08-09T00:41:28.903Z,62.58
2018-08-09T00:42:35.177Z,62.85
2018-08-09T00:43:41.143Z,62.61
2018-08-09T00:44:47.095Z,63.20
2018-08-09T00:45:53.437Z,63.05
2018-08-09T00:46:59.903Z,62.43
2018-08-09T00:48:06.517Z,62.30
2018-08-09T00:49:12.520Z,62.50
2018-08-09T00:50:19.351Z,62.96
2018-08-09T00:51:25.609Z,62.79
2018-08-09T00:52:31.547Z,63.46
2018-08-09T00:53:37.904Z,63.73
2018-08-09T00:54:44.211Z,63.70
2018-08-09T00:55:50.235Z,63.43
2018-08-09T00:56:56.568Z,63.26
2018-08-09T00:58:02.847Z,63.55
2018-08-09T00:59:08.560Z,63.96
2018-08-09T01:00:14.561Z,63.76
2018-08-09T01:01:20.286Z,63.95
2018-08-09T01:02:26.594Z,63.50
2018-08-09T01:03:32.910Z,63.87
2018-08-09T01:04:39.185Z,63.12
2018-08-09T01:05:45.495Z,63.52
2018-08-09T01:06:51.477Z,63.98
2018-08-09T01:07:57.549Z,64.15
2018-08-09T01:09:03.033Z,64.25
2018-08-09T01:10:08.484Z,63.58
2018-08-09T01:11:14.911Z,64.02
2018-08-09T01:12:20.695Z,64.05
2018-08-09T01:13:26.835Z,64.06
2018-08-09T01:14:33.119Z,64.21
2018-08-09T01:15:39.435Z,64.36
2018-08-09T01:16:45.774Z,64.46
2018-08-09T01:17:51.810Z,64.35
2018-08-09T01:18:58.070Z,64.58
2018-08-09T01:20:03.706Z,64.82
2018-08-09T01:21:09.662Z,64.96
2018-08-09T01:22:15.706Z,64.86
2018-08-09T01:23:21.363Z,65.32
2018-08-09T01:24:27.423Z,64.94
2018-08-09T01:25:33.071Z,65.07
2018-08-09T01:26:39.100Z,65.39
2018-08-09T01:27:45.419Z,65.25
2018-08-09T01:28:51.719Z,65.15
2018-08-09T01:29:57.824Z,64.66
2018-08-09T01:31:03.784Z,64.81
2018-08-09T01:32:09.786Z,65.26
2018-08-09T01:33:16.029Z,64.53
2018-08-09T01:34:22.340Z,64.86
2018-08-09T01:35:28.356Z,64.82
2018-08-09T01:36:34.365Z,64.62
2018-08-09T01:37:40.956Z,64.79
2018-08-09T01:38:47.181Z,65.30
2018-08-09T01:39:53.487Z,65.60
2018-08-09T01:40:59.824Z,65.85
2018-08-09T01:43:57.556Z,66.13
2018-08-09T01:45:03.896Z,66.19
2018-08-09T01:46:09.864Z,65.81
2018-08-09T01:47:16.320Z,66.39
2018-08-09T01:48:22.649Z,66.90
2018-08-09T01:49:28.907Z,66.73
2018-08-09T01:50:35.162Z,66.22
2018-08-09T01:51:41.460Z,66.23
2018-08-09T01:52:47.778Z,66.32
2018-08-09T01:53:54.068Z,66.94
2018-08-09T01:55:01.884Z,67.10
2018-08-09T01:56:08.223Z,67.18
2018-08-09T01:57:15.456Z,66.83
2018-08-09T01:58:21.440Z,66.74
2018-08-09T01:59:27.136Z,67.36
2018-08-09T02:00:33.223Z,67.63
2018-08-09T02:01:39.489Z,67.53
2018-08-09T02:02:45.481Z,67.06
2018-08-09T02:03:51.476Z,67.16
2018-08-09T02:05:04.488Z,67.53
2018-08-09T02:06:24.912Z,67.53
2018-08-09T02:07:35.085Z,67.41
2018-08-09T02:08:41.136Z,68.02
2018-08-09T02:09:47.417Z,68.41
2018-08-09T02:10:53.516Z,68.33
2018-08-09T02:11:59.867Z,68.33
2018-08-09T02:13:05.768Z,68.38
2018-08-09T02:14:11.817Z,68.08
2018-08-09T02:15:18.673Z,67.81
2018-08-09T02:16:24.795Z,68.34
2018-08-09T02:17:31.687Z,68.49
2018-08-09T02:18:37.881Z,68.82
2018-08-09T02:19:45.232Z,68.62
2018-08-09T02:20:51.659Z,68.36
2018-08-09T02:21:58.092Z,68.87
2018-08-09T02:23:04.803Z,69.02
2018-08-09T02:24:11.205Z,69.28
2018-08-09T02:25:17.535Z,69.47
2018-08-09T02:26:23.486Z,69.52
2018-08-09T02:27:29.837Z,69.96
2018-08-09T02:28:36.284Z,69.78
2018-08-09T02:29:42.559Z,69.60
2018-08-09T02:30:48.871Z,68.98
2018-08-09T02:31:55.815Z,69.15
2018-08-09T02:33:02.155Z,69.20
2018-08-09T02:34:08.463Z,69.34
2018-08-09T02:35:14.912Z,69.42
2018-08-09T02:36:21.262Z,69.58
2018-08-09T02:37:27.560Z,70.16
2018-08-09T02:38:33.923Z,70.07
2018-08-09T02:39:40.215Z,70.26
2018-08-09T02:40:46.525Z,70.82
2018-08-09T02:41:52.865Z,70.79
2018-08-09T02:42:59.250Z,70.86
2018-08-09T02:44:05.325Z,71.27
2018-08-09T02:45:11.750Z,71.32
2018-08-09T02:46:18.819Z,71.70
2018-08-09T02:47:25.218Z,71.67
2018-08-09T02:48:31.882Z,71.30
2018-08-09T02:49:38.485Z,71.49
2018-08-09T02:50:44.863Z,71.45
2018-08-09T02:51:51.260Z,71.51
2018-08-09T02:52:57.587Z,71.53
2018-08-09T02:54:03.555Z,71.17
2018-08-09T02:55:09.937Z,70.77
2018-08-09T02:56:15.580Z,70.66
2018-08-09T02:57:22.013Z,71.08
2018-08-09T02:58:28.349Z,70.68
2018-08-09T02:59:34.658Z,71.10
2018-08-09T03:00:40.935Z,71.22
2018-08-09T03:01:47.632Z,72.07
2018-08-09T03:02:54.296Z,72.40
2018-08-09T03:04:00.633Z,72.09
2018-08-09T03:05:06.371Z,72.34
2018-08-09T03:06:12.814Z,72.53
2018-08-09T03:07:18.796Z,72.72
2018-08-09T03:08:25.200Z,72.38
2018-08-09T03:09:31.619Z,72.27
2018-08-09T03:10:37.504Z,72.49
2018-08-09T03:11:43.636Z,72.50
2018-08-09T03:12:50.060Z,72.17
2018-08-09T03:13:56.212Z,72.00
2018-08-09T03:15:02.624Z,72.62
2018-08-09T03:16:08.907Z,72.85
2018-08-09T03:17:15.032Z,73.02
2018-08-09T03:18:21.245Z,72.94
2018-08-09T03:19:27.358Z,72.64
2018-08-09T03:20:33.740Z,72.85
2018-08-09T03:21:39.688Z,73.54
2018-08-09T03:22:46.058Z,73.58
2018-08-09T03:23:52.405Z,73.73
2018-08-09T03:24:59.260Z,73.83
2018-08-09T03:26:05.408Z,73.86
2018-08-09T03:27:11.721Z,73.83
2018-08-09T03:28:18.044Z,73.83
2018-08-09T03:29:24.380Z,74.06
2018-08-09T03:30:30.652Z,74.35
2018-08-09T03:31:36.943Z,74.46
2018-08-09T03:32:43.292Z,74.41
2018-08-09T03:33:49.618Z,74.41
2018-08-09T03:34:55.892Z,74.35
2018-08-09T03:36:02.331Z,74.26
2018-08-09T03:37:08.400Z,74.10
2018-08-09T03:38:14.965Z,73.79
2018-08-09T03:39:21.694Z,73.79
2018-08-09T03:40:27.981Z,74.33
2018-08-09T03:41:34.285Z,74.05
2018-08-09T03:42:40.627Z,73.97
2018-08-09T03:43:46.660Z,74.43
2018-08-09T03:44:53.144Z,74.56
2018-08-09T03:45:59.537Z,74.09
2018-08-09T03:47:05.199Z,74.23
2018-08-09T03:48:11.700Z,74.44
2018-08-09T03:49:18.091Z,74.35
2018-08-09T03:50:24.384Z,74.73
2018-08-09T03:51:30.684Z,74.94
2018-08-09T03:52:36.986Z,74.99
2018-08-09T03:53:43.308Z,74.79
2018-08-09T03:54:49.761Z,74.41
2018-08-09T03:55:56.734Z,74.62
2018-08-09T03:57:03.177Z,74.75
2018-08-09T03:58:09.231Z,74.60
2018-08-09T03:59:15.885Z,74.86
2018-08-09T04:00:22.214Z,75.32
2018-08-09T04:01:28.721Z,75.58
2018-08-09T04:02:35.061Z,75.44
2018-08-09T04:03:41.360Z,75.76
2018-08-09T04:04:47.355Z,75.83
2018-08-09T04:05:53.806Z,76.07
2018-08-09T04:07:00.135Z,76.18
2018-08-09T04:08:18.880Z,76.04
2018-08-09T04:09:39.797Z,76.18
2018-08-09T04:10:51.972Z,76.44
2018-08-09T04:11:58.291Z,76.53
2018-08-09T04:13:04.537Z,76.38
2018-08-09T04:14:10.935Z,76.59
2018-08-09T04:15:17.214Z,76.89
2018-08-09T04:16:23.566Z,76.87
2018-08-09T04:17:29.876Z,76.96
2018-08-09T04:18:35.975Z,76.61
2018-08-09T04:19:42.857Z,76.72
2018-08-09T04:20:49.324Z,76.54
2018-08-09T04:21:54.916Z,77.00
2018-08-09T04:23:01.330Z,76.89
2018-08-09T04:24:07.753Z,76.57
2018-08-09T04:25:14.023Z,76.62
2018-08-09T04:26:20.373Z,76.92
2018-08-09T04:27:26.649Z,77.23
2018-08-09T04:28:33.067Z,77.08
2018-08-09T04:29:39.096Z,77.54
2018-08-09T04:30:45.488Z,77.34
2018-08-09T04:31:51.455Z,76.98
2018-08-09T04:32:57.831Z,77.18
2018-08-09T04:34:04.105Z,77.67
2018-08-09T04:35:11.019Z,77.41
2018-08-09T04:36:17.140Z,77.58
2018-08-09T04:37:23.567Z,77.80
2018-08-09T04:38:29.877Z,77.71
2018-08-09T04:39:36.295Z,78.10
2018-08-09T04:40:42.599Z,77.57
2018-08-09T04:41:48.914Z,77.61
2018-08-09T04:42:55.220Z,77.64
2018-08-09T04:44:01.540Z,77.78
2018-08-09T04:45:07.513Z,77.87
2018-08-09T04:46:13.993Z,77.69
2018-08-09T04:47:19.949Z,77.69
2018-08-09T04:48:26.427Z,77.85
2018-08-09T04:49:32.719Z,77.93
2018-08-09T04:50:39.000Z,77.87
2018-08-09T04:51:45.312Z,77.95
2018-08-09T04:52:51.629Z,78.09
2018-08-09T04:53:57.923Z,77.96
2018-08-09T04:55:03.921Z,78.11
2018-08-09T04:56:10.348Z,78.01
2018-08-09T04:57:16.668Z,77.85
2018-08-09T04:58:23.017Z,78.04
2018-08-09T04:59:29.602Z,77.98
2018-08-09T05:00:35.952Z,78.01
2018-08-09T05:01:42.491Z,77.95
2018-08-09T05:02:48.829Z,77.64
2018-08-09T05:03:56.361Z,77.66
2018-08-09T05:05:02.908Z,77.80
2018-08-09T05:06:10.017Z,77.95
2018-08-09T05:07:16.909Z,77.83
2018-08-09T05:08:24.046Z,77.76
2018-08-09T05:09:30.493Z,77.54
2018-08-09T05:10:36.938Z,77.25
2018-08-09T05:11:44.773Z,77.62
2018-08-09T05:12:51.704Z,77.64
2018-08-09T05:13:58.004Z,77.59
2018-08-09T05:15:03.724Z,77.78
2018-08-09T05:16:09.136Z,77.75
2018-08-09T05:17:15.533Z,77.46
2018-08-09T05:18:21.915Z,77.49
2018-08-09T05:19:28.266Z,77.34
2018-08-09T05:20:34.572Z,77.51
2018-08-09T05:21:40.851Z,77.50
2018-08-09T05:22:47.238Z,77.49
2018-08-09T05:23:58.552Z,77.62
2018-08-09T05:25:04.244Z,77.34
2018-08-09T05:26:10.491Z,77.35
2018-08-09T05:27:16.808Z,77.53
2018-08-09T05:28:23.117Z,77.39
2018-08-09T05:29:29.433Z,77.54
2018-08-09T05:30:35.782Z,77.38
2018-08-09T05:31:42.060Z,77.49
2018-08-09T05:32:48.404Z,77.61
2018-08-09T05:33:54.693Z,77.14
2018-08-09T05:35:00.993Z,77.12
2018-08-09T05:36:07.340Z,77.27
2018-08-09T05:37:13.313Z,76.86
2018-08-09T05:38:19.758Z,77.06
2018-08-09T05:39:26.471Z,77.23
2018-08-09T05:40:33.203Z,77.45
2018-08-09T05:41:39.595Z,77.43
2018-08-09T05:42:45.625Z,77.16
2018-08-09T05:43:52.932Z,76.89
2018-08-09T05:44:59.250Z,76.91
2018-08-09T05:46:04.702Z,76.84
2018-08-09T05:47:11.059Z,76.96
2018-08-09T05:48:17.479Z,76.86
2018-08-09T05:49:23.798Z,76.89
2018-08-09T05:50:30.206Z,76.79
2018-08-09T05:51:36.511Z,76.34
2018-08-09T05:52:42.580Z,76.40
2018-08-09T05:53:49.126Z,76.48
2018-08-09T05:54:55.493Z,76.47
2018-08-09T05:56:01.811Z,76.72
2018-08-09T05:57:07.820Z,76.78
2018-08-09T05:58:14.286Z,76.41
2018-08-09T05:59:20.399Z,76.15
2018-08-09T06:00:26.714Z,75.66
2018-08-09T06:01:32.649Z,75.98
2018-08-09T06:02:38.908Z,75.91
2018-08-09T06:03:45.244Z,76.32
2018-08-09T06:04:51.314Z,75.63
2018-08-09T06:05:57.663Z,75.80
2018-08-09T06:07:03.524Z,75.47
2018-08-09T06:08:09.956Z,75.22
2018-08-09T06:09:16.370Z,74.91
2018-08-09T06:10:22.708Z,74.53
2018-08-09T06:11:38.016Z,74.74
2018-08-09T06:12:46.998Z,75.10
2018-08-09T06:14:07.372Z,74.74
2018-08-09T06:15:14.384Z,74.90
2018-08-09T06:16:20.671Z,75.31
2018-08-09T06:17:26.980Z,75.39
2018-08-09T06:18:33.376Z,75.71
2018-08-09T06:19:39.816Z,74.49
2018-08-09T06:20:45.797Z,74.92
2018-08-09T06:21:52.245Z,75.42
2018-08-09T06:22:58.773Z,74.75
2018-08-09T06:24:04.434Z,75.34
2018-08-09T06:25:10.398Z,75.31
2018-08-09T06:26:16.802Z,75.07
2018-08-09T06:27:23.259Z,74.86
2018-08-09T06:28:29.556Z,73.91
2018-08-09T06:29:35.352Z,73.91
2018-08-09T06:30:41.481Z,73.71
2018-08-09T06:31:47.772Z,74.06
2018-08-09T06:32:54.122Z,73.43
2018-08-09T06:34:00.624Z,74.10
2018-08-09T06:35:06.576Z,73.62
2018-08-09T06:36:13.054Z,74.00
2018-08-09T06:37:18.999Z,74.00
2018-08-09T06:38:24.549Z,73.77
2018-08-09T06:39:30.262Z,73.75
2018-08-09T06:40:36.259Z,72.78
2018-08-09T06:41:42.569Z,73.06
2018-08-09T06:42:48.851Z,73.97
2018-08-09T06:44:02.918Z,72.23
2018-08-09T06:45:08.953Z,72.53
2018-08-09T06:46:14.996Z,72.62
2018-08-09T06:47:21.095Z,72.32
2018-08-09T06:48:27.392Z,72.58
2018-08-09T06:49:33.704Z,72.73
2018-08-09T06:50:39.658Z,72.48
2018-08-09T06:51:46.006Z,72.62
2018-08-09T06:52:52.312Z,72.99
2018-08-09T06:53:58.625Z,72.30
2018-08-09T06:55:09.743Z,72.57
2018-08-09T06:56:16.102Z,71.85
2018-08-09T06:57:22.160Z,71.86
2018-08-09T06:58:28.112Z,71.69
2018-08-09T06:59:34.595Z,71.84
2018-08-09T07:00:40.931Z,72.22
2018-08-09T07:01:46.885Z,70.70
2018-08-09T07:02:52.982Z,70.09
2018-08-09T07:03:58.909Z,70.22
2018-08-09T07:05:04.537Z,70.30
2018-08-09T07:06:10.844Z,71.14
2018-08-09T07:07:17.169Z,71.12
2018-08-09T07:08:23.075Z,71.00
2018-08-09T07:09:29.372Z,70.96
2018-08-09T07:10:35.692Z,71.12
2018-08-09T07:11:41.743Z,71.35
2018-08-09T07:12:48.146Z,71.02
2018-08-09T07:13:54.500Z,70.41
2018-08-09T07:15:00.556Z,71.08
2018-08-09T07:16:06.537Z,70.66
2018-08-09T07:17:12.916Z,70.36
2018-08-09T07:18:18.961Z,70.63
2018-08-09T07:19:25.280Z,71.38
2018-08-09T07:20:31.221Z,70.18
2018-08-09T07:21:38.291Z,69.72
2018-08-09T07:22:44.608Z,69.46
2018-08-09T07:23:50.544Z,69.77
2018-08-09T07:24:56.599Z,69.72
2018-08-09T07:26:02.935Z,68.84
2018-08-09T07:27:08.920Z,68.22
2018-08-09T07:28:14.924Z,67.69
2018-08-09T07:29:20.544Z,68.36
2018-08-09T07:30:26.896Z,67.90
2018-08-09T07:31:33.849Z,69.20
2018-08-09T07:32:39.879Z,68.03
2018-08-09T07:33:46.330Z,66.67
2018-08-09T07:34:52.550Z,67.22
2018-08-09T07:35:58.523Z,66.86
2018-08-09T07:37:04.534Z,67.79
2018-08-09T07:38:10.256Z,67.27
2018-08-09T07:39:17.031Z,66.28
2018-08-09T07:40:23.355Z,66.22
2018-08-09T07:41:29.370Z,65.87
2018-08-09T07:42:35.343Z,66.48
2018-08-09T07:43:41.345Z,66.14
2018-08-09T07:44:47.343Z,66.03
2018-08-09T07:45:53.381Z,66.10
2018-08-09T07:46:59.401Z,65.10
2018-08-09T07:48:05.804Z,65.12
2018-08-09T07:49:11.780Z,66.31
2018-08-09T07:50:18.112Z,66.22
2018-08-09T07:51:24.455Z,66.14
2018-08-09T07:52:30.089Z,66.22
2018-08-09T07:53:36.101Z,66.15
2018-08-09T07:54:42.144Z,65.44
2018-08-09T07:55:48.119Z,65.62
2018-08-09T07:56:53.851Z,64.61
2018-08-09T07:58:00.600Z,65.36
2018-08-09T07:59:06.672Z,64.10
2018-08-09T08:00:12.316Z,63.60
2018-08-09T08:01:18.166Z,64.07
2018-08-09T08:02:24.248Z,62.78
2018-08-09T08:03:30.293Z,63.54
2018-08-09T08:04:36.261Z,62.11
2018-08-09T08:05:42.290Z,61.83
2018-08-09T08:06:48.527Z,60.90
2018-08-09T08:07:54.476Z,61.41
2018-08-09T08:09:00.492Z,61.19
2018-08-09T08:10:06.590Z,61.05
2018-08-09T08:11:12.594Z,61.08
2018-08-09T08:12:18.293Z,61.60
2018-08-09T08:13:24.296Z,61.43
2018-08-09T08:14:38.691Z,60.82
2018-08-09T08:15:48.530Z,61.67
2018-08-09T08:17:02.918Z,62.02
2018-08-09T08:18:13.179Z,60.94
2018-08-09T08:19:18.894Z,60.69
2018-08-09T08:20:24.555Z,60.32
2018-08-09T08:21:30.510Z,60.03
2018-08-09T08:22:36.252Z,60.46
2018-08-09T08:23:42.288Z,59.65
2018-08-09T08:24:48.296Z,59.43
2018-08-09T08:25:53.976Z,59.10
2018-08-09T08:27:00.029Z,58.43
2018-08-09T08:28:05.710Z,58.85
2018-08-09T08:29:11.799Z,58.64
2018-08-09T08:30:17.844Z,58.61
2018-08-09T08:31:23.842Z,57.62
2018-08-09T08:32:29.847Z,58.98
2018-08-09T08:33:35.849Z,57.85
2018-08-09T08:34:41.901Z,57.62
2018-08-09T08:35:48.156Z,57.43
2018-08-09T08:36:54.304Z,57.38
2018-08-09T08:37:59.696Z,58.21
2018-08-09T08:39:04.964Z,57.92
2018-08-09T08:40:10.252Z,57.32
2018-08-09T08:41:16.365Z,57.98
2018-08-09T08:42:22.273Z,57.77
2018-08-09T08:43:28.224Z,58.00
2018-08-09T08:44:34.269Z,56.72
2018-08-09T08:45:40.243Z,57.21
2018-08-09T08:46:45.926Z,57.10
2018-08-09T08:47:51.972Z,57.28
2018-08-09T08:48:57.954Z,57.26
2018-08-09T08:50:04.343Z,56.95
2018-08-09T08:51:10.089Z,57.13
2018-08-09T08:52:16.203Z,56.58
2018-08-09T08:53:22.191Z,55.99
2018-08-09T08:54:28.146Z,56.43
2018-08-09T08:55:34.141Z,56.05
2018-08-09T08:56:40.283Z,56.74
2018-08-09T08:57:45.660Z,55.60
2018-08-09T08:58:51.324Z,55.80
2018-08-09T08:59:56.928Z,55.81
2018-08-09T09:01:02.828Z,55.26
2018-08-09T09:02:09.014Z,55.25
2018-08-09T09:03:14.875Z,54.90
2018-08-09T09:04:21.080Z,55.38
2018-08-09T09:05:27.100Z,54.87
2018-08-09T09:06:32.781Z,54.36
2018-08-09T09:07:38.498Z,54.57
2018-08-09T09:08:44.255Z,54.86
2018-08-09T09:09:50.303Z,54.60
2018-08-09T09:10:56.280Z,55.20
2018-08-09T09:12:01.752Z,54.67
2018-08-09T09:13:07.813Z,55.70
2018-08-09T09:14:13.847Z,55.42
2018-08-09T09:15:19.483Z,54.89
2018-08-09T09:16:26.134Z,53.90
2018-08-09T09:17:32.260Z,53.97
2018-08-09T09:18:38.011Z,53.46
2018-08-09T09:19:43.816Z,54.25
2018-08-09T09:20:49.636Z,54.99
2018-08-09T09:21:55.759Z,53.76
2018-08-09T09:23:02.947Z,54.15
2018-08-09T09:24:09.634Z,52.98
2018-08-09T09:25:16.265Z,53.14
2018-08-09T09:28:21.971Z,53.43
2018-08-09T09:29:32.380Z,53.05
2018-08-09T09:30:38.015Z,52.77
2018-08-09T09:31:43.930Z,51.36
2018-08-09T09:32:49.870Z,52.42
2018-08-09T09:33:55.836Z,51.27
2018-08-09T09:35:01.808Z,51.46
2018-08-09T09:36:07.972Z,51.91
2018-08-09T09:37:13.930Z,51.17
2018-08-09T09:38:19.919Z,51.47
2018-08-09T09:39:25.847Z,50.92
2018-08-09T09:40:31.478Z,50.96
2018-08-09T09:41:37.202Z,50.73
2018-08-09T09:42:42.588Z,51.52
2018-08-09T09:43:48.540Z,51.85
2018-08-09T09:44:54.245Z,51.92
2018-08-09T09:46:00.208Z,53.05
2018-08-09T09:47:05.829Z,51.10
2018-08-09T09:48:11.467Z,51.64
2018-08-09T09:49:17.389Z,51.64
2018-08-09T09:50:22.690Z,50.96
2018-08-09T09:51:28.806Z,50.93
2018-08-09T09:52:34.807Z,50.91
2018-08-09T09:53:40.791Z,51.00
2018-08-09T09:54:46.729Z,51.27
2018-08-09T09:55:52.693Z,49.79
2018-08-09T09:56:58.710Z,51.17
2018-08-09T09:58:04.313Z,49.20
2018-08-09T09:59:10.259Z,49.86
2018-08-09T10:00:15.963Z,48.96
2018-08-09T10:01:21.433Z,49.02
2018-08-09T10:02:27.400Z,49.39
2018-08-09T10:03:33.378Z,48.96
2018-08-09T10:04:39.335Z,49.04
2018-08-09T10:05:45.324Z,49.02
2018-08-09T10:06:51.291Z,49.55
2018-08-09T10:07:57.281Z,48.50
2018-08-09T10:09:02.995Z,48.36
2018-08-09T10:10:08.346Z,48.12
2018-08-09T10:11:14.319Z,49.69
2018-08-09T10:12:20.325Z,48.28
2018-08-09T10:13:25.879Z,48.52
2018-08-09T10:14:31.817Z,48.42
2018-08-09T10:15:37.531Z,48.45
2018-08-09T10:16:43.533Z,47.34
2018-08-09T10:17:49.548Z,47.73
2018-08-09T10:18:55.484Z,47.80
2018-08-09T10:20:01.450Z,48.86
2018-08-09T10:21:07.087Z,46.78
2018-08-09T10:22:13.069Z,46.32
2018-08-09T10:23:19.016Z,46.25
2018-08-09T10:24:24.993Z,46.32
2018-08-09T10:25:31.134Z,47.50
2018-08-09T10:26:37.119Z,47.22
2018-08-09T10:27:43.145Z,46.72
2018-08-09T10:28:49.131Z,46.74
2018-08-09T10:29:55.134Z,47.00
2018-08-09T10:31:01.255Z,46.45
2018-08-09T10:32:07.214Z,45.50
2018-08-09T10:33:13.178Z,45.48
2018-08-09T10:34:19.125Z,45.09
2018-08-09T10:35:25.067Z,44.96
2018-08-09T10:36:30.865Z,44.71
2018-08-09T10:37:36.796Z,44.64
2018-08-09T10:38:42.696Z,44.97
2018-08-09T10:39:48.616Z,44.68
2018-08-09T10:40:54.248Z,44.32
2018-08-09T10:42:00.201Z,45.45
2018-08-09T10:43:06.188Z,44.82
2018-08-09T10:44:11.809Z,44.04
2018-08-09T10:45:17.394Z,44.90
2018-08-09T10:46:23.295Z,44.39
2018-08-09T10:47:28.922Z,44.74
2018-08-09T10:48:34.880Z,44.79
2018-08-09T10:49:40.796Z,44.67
2018-08-09T10:50:46.739Z,44.10
2018-08-09T10:51:52.703Z,44.02
2018-08-09T10:52:58.649Z,44.11
2018-08-09T10:54:04.603Z,43.59
2018-08-09T10:55:10.547Z,43.55
2018-08-09T10:56:16.533Z,43.86
2018-08-09T10:57:22.163Z,43.12
2018-08-09T10:58:27.873Z,43.48
2018-08-09T10:59:33.861Z,42.05
2018-08-09T11:00:39.849Z,43.88
2018-08-09T11:01:45.818Z,42.42
2018-08-09T11:02:51.941Z,42.56
2018-08-09T11:03:57.933Z,42.32
2018-08-09T11:05:03.533Z,43.30
2018-08-09T11:06:09.101Z,42.93
2018-08-09T11:07:14.822Z,42.00
2018-08-09T11:08:20.768Z,41.97
2018-08-09T11:09:26.711Z,41.66
2018-08-09T11:10:32.701Z,43.38
2018-08-09T11:11:38.655Z,41.38
2018-08-09T11:12:44.632Z,41.48
2018-08-09T11:13:50.613Z,40.87
2018-08-09T11:14:56.631Z,41.59
2018-08-09T11:16:02.888Z,41.09
2018-08-09T11:17:08.940Z,41.60
2018-08-09T11:18:14.921Z,40.96
2018-08-09T11:19:20.904Z,40.20
2018-08-09T11:20:26.523Z,40.90
2018-08-09T11:21:32.509Z,39.20
2018-08-09T11:22:38.462Z,40.22
2018-08-09T11:23:44.515Z,40.95
2018-08-09T11:24:50.854Z,39.50
2018-08-09T11:25:57.178Z,39.79
2018-08-09T11:27:03.558Z,38.53
2018-08-09T11:28:09.496Z,38.18
2018-08-09T11:29:28.424Z,38.21
2018-08-09T11:30:39.158Z,38.10
2018-08-09T11:32:00.260Z,38.26
2018-08-09T11:33:09.713Z,38.34
2018-08-09T11:34:17.790Z,38.54
2018-08-09T11:35:23.987Z,38.70
2018-08-09T11:36:29.913Z,38.85
2018-08-09T11:37:35.878Z,38.40
2018-08-09T11:38:41.848Z,39.11
2018-08-09T11:39:47.828Z,38.99
2018-08-09T11:40:53.752Z,37.71
2018-08-09T11:41:59.721Z,37.91
2018-08-09T11:43:05.387Z,38.78
2018-08-09T11:44:11.553Z,37.98
2018-08-09T11:45:17.195Z,36.91
2018-08-09T11:46:23.173Z,36.04
2018-08-09T11:47:29.142Z,36.53
2018-08-09T11:48:35.156Z,36.78
2018-08-09T11:49:41.141Z,36.65
2018-08-09T11:50:46.743Z,36.61
2018-08-09T11:51:52.690Z,35.85
2018-08-09T11:53:02.214Z,35.08
2018-08-09T11:54:08.208Z,36.97
2018-08-09T11:55:14.171Z,35.65
2018-08-09T11:56:20.138Z,36.06
2018-08-09T11:57:26.158Z,35.79
2018-08-09T11:58:32.174Z,35.97
2018-08-09T11:59:38.167Z,36.08
2018-08-09T12:00:44.073Z,36.04
2018-08-09T12:01:49.686Z,35.42
2018-08-09T12:02:55.777Z,36.30
2018-08-09T12:04:02.040Z,36.25
2018-08-09T12:05:07.738Z,36.27
2018-08-09T12:06:13.660Z,37.29
2018-08-09T12:07:19.632Z,36.33
2018-08-09T12:08:25.606Z,36.04
2018-08-09T12:09:31.555Z,35.45
2018-08-09T12:10:37.725Z,35.87
2018-08-09T12:11:43.693Z,35.22
2018-08-09T12:12:49.275Z,34.68
2018-08-09T12:13:54.909Z,34.45
2018-08-09T12:15:00.907Z,34.38
2018-08-09T12:16:06.381Z,33.44
2018-08-09T12:17:12.333Z,34.16
2018-08-09T12:18:18.266Z,34.55
2018-08-09T12:19:23.898Z,34.37
2018-08-09T12:20:29.887Z,34.39
2018-08-09T12:21:35.873Z,34.27
2018-08-09T12:22:41.488Z,34.52
2018-08-09T12:23:46.757Z,34.06
2018-08-09T12:24:52.697Z,33.96
2018-08-09T12:25:58.748Z,33.72
2018-08-09T12:27:04.373Z,34.31
2018-08-09T12:28:10.547Z,34.89
2018-08-09T12:29:15.895Z,32.26
2018-08-09T12:30:21.901Z,33.27
2018-08-09T12:31:27.659Z,33.78
2018-08-09T12:32:33.252Z,34.04
2018-08-09T12:33:38.499Z,33.80
2018-08-09T12:34:44.132Z,33.54
2018-08-09T12:35:49.736Z,32.83
2018-08-09T12:36:55.303Z,33.44
2018-08-09T12:38:00.586Z,33.19
2018-08-09T12:39:05.888Z,33.75
2018-08-09T12:40:11.179Z,33.83
2018-08-09T12:41:17.735Z,33.94
2018-08-09T12:42:23.397Z,34.54
2018-08-09T12:43:28.983Z,33.94
2018-08-09T12:44:34.251Z,34.67
2018-08-09T12:45:39.302Z,33.37
2018-08-09T12:46:44.793Z,33.26
2018-08-09T12:47:50.435Z,33.12
2018-08-09T12:48:56.012Z,32.79
2018-08-09T12:50:02.030Z,32.58
2018-08-09T12:51:07.620Z,33.35
2018-08-09T12:52:13.589Z,32.17
2018-08-09T12:53:19.775Z,32.66
2018-08-09T12:54:25.756Z,32.48
2018-08-09T12:55:31.365Z,32.68
2018-08-09T12:56:36.643Z,33.08
2018-08-09T12:57:42.249Z,33.06
2018-08-09T12:58:47.503Z,32.60
2018-08-09T12:59:53.169Z,31.49
2018-08-09T13:00:59.023Z,31.91
2018-08-09T13:02:04.284Z,31.44
2018-08-09T13:03:09.900Z,31.54
2018-08-09T13:04:15.848Z,31.64
2018-08-09T13:05:21.813Z,31.54
2018-08-09T13:06:27.412Z,31.49
2018-08-09T13:07:33.073Z,34.01
2018-08-09T13:08:38.323Z,31.27
2018-08-09T13:09:43.982Z,31.92
2018-08-09T13:10:49.671Z,30.63
2018-08-09T13:11:55.483Z,31.52
2018-08-09T13:13:01.075Z,31.48
2018-08-09T13:14:06.403Z,30.98
2018-08-09T13:15:11.706Z,30.94
2018-08-09T13:16:17.302Z,31.31
2018-08-09T13:17:22.906Z,30.95
2018-08-09T13:18:28.292Z,31.42
2018-08-09T13:19:34.306Z,31.60
2018-08-09T13:20:39.627Z,31.65
2018-08-09T13:21:45.297Z,31.97
2018-08-09T13:22:51.252Z,32.71
2018-08-09T13:23:56.508Z,33.01
2018-08-09T13:25:02.065Z,32.41
2018-08-09T13:26:07.439Z,32.26
2018-08-09T13:27:13.636Z,35.15
2018-08-09T13:28:19.596Z,33.02
2018-08-09T13:29:25.576Z,31.68
2018-08-09T13:30:31.560Z,31.51
2018-08-09T13:31:36.818Z,32.61
2018-08-09T13:32:52.586Z,31.83
2018-08-09T13:34:05.877Z,32.76
2018-08-09T13:35:20.322Z,32.38
2018-08-09T13:36:25.695Z,32.57
2018-08-09T13:37:30.941Z,32.11
2018-08-09T13:38:36.895Z,31.61
2018-08-09T13:39:42.846Z,31.99
2018-08-09T13:40:48.891Z,32.29
2018-08-09T13:41:54.492Z,32.88
2018-08-09T13:43:00.180Z,32.14
2018-08-09T13:44:05.940Z,32.94
2018-08-09T13:45:11.203Z,31.64
2018-08-09T13:46:16.854Z,31.70
2018-08-09T13:47:22.840Z,31.26
2018-08-09T13:48:28.823Z,32.42
2018-08-09T13:49:34.529Z,30.89
2018-08-09T13:50:40.513Z,32.08
2018-08-09T13:51:46.483Z,31.34
2018-08-09T13:52:52.109Z,31.17
2018-08-09T13:53:57.753Z,31.37
2018-08-09T13:55:03.041Z,31.75
2018-08-09T13:56:08.352Z,31.77
2018-08-09T13:57:14.283Z,29.98
2018-08-09T13:58:19.544Z,30.14
2018-08-09T13:59:25.736Z,30.89
2018-08-09T14:00:31.332Z,31.57
2018-08-09T14:01:36.590Z,32.64
2018-08-09T14:02:42.211Z,32.37
2018-08-09T14:03:48.183Z,32.07
2018-08-09T14:04:53.451Z,31.75
2018-08-09T14:05:58.782Z,31.69
2018-08-09T14:07:04.045Z,31.13
2018-08-09T14:08:09.324Z,30.80
2018-08-09T14:09:15.269Z,31.32
2018-08-09T14:10:20.954Z,30.79
2018-08-09T14:11:26.276Z,30.84
2018-08-09T14:12:31.583Z,31.07
2018-08-09T14:13:37.149Z,31.03
2018-08-09T14:14:43.045Z,31.72
2018-08-09T14:15:48.997Z,31.56
2018-08-09T14:16:54.956Z,31.49
2018-08-09T14:18:00.908Z,31.58